sensor_id;sensor_type;location;lat;lon;timestamp;P1;durP1;ratioP1;P2;durP2;ratioP2
28988;SDS011;16089;59.952;10.818;2023-03-02T00:00:53;0.80;;;0.28;;
28988;SDS011;16089;59.952;10.818;2023-03-02T00:03:22;0.82;;;0.28;;
28988;SDS011;16089;59.952;10.818;2023-03-02T00:05:48;0.50;;;0.30;;
28988;SDS011;16089;59.952;10.818;2023-03-02T00:08:15;0.95;;;0.30;;
28988;SDS011;16089;59.952;10.818;2023-03-02T00:10:41;0.85;;;0.20;;
28988;SDS011;16089;59.952;10.818;2023-03-02T00:13:08;1.20;;;0.20;;
28988;SDS011;16089;59.952;10.818;2023-03-02T00:15:34;1.75;;;0.30;;
28988;SDS011;16089;59.952;10.818;2023-03-02T00:18:01;1.00;;;0.30;;
28988;SDS011;16089;59.952;10.818;2023-03-02T00:20:28;0.47;;;0.20;;
28988;SDS011;16089;59.952;10.818;2023-03-02T00:22:55;2.28;;;0.20;;
28988;SDS011;16089;59.952;10.818;2023-03-02T00:25:21;0.80;;;0.25;;
28988;SDS011;16089;59.952;10.818;2023-03-02T00:27:48;0.47;;;0.20;;
28988;SDS011;16089;59.952;10.818;2023-03-02T00:30:14;0.57;;;0.20;;
28988;SDS011;16089;59.952;10.818;2023-03-02T00:32:41;0.88;;;0.20;;
28988;SDS011;16089;59.952;10.818;2023-03-02T00:35:08;0.60;;;0.20;;
28988;SDS011;16089;59.952;10.818;2023-03-02T00:37:36;2.05;;;0.20;;
28988;SDS011;16089;59.952;10.818;2023-03-02T00:40:03;1.08;;;0.30;;
28988;SDS011;16089;59.952;10.818;2023-03-02T00:42:31;0.82;;;0.28;;
28988;SDS011;16089;59.952;10.818;2023-03-02T00:44:57;0.68;;;0.28;;
28988;SDS011;16089;59.952;10.818;2023-03-02T00:47:25;0.90;;;0.40;;
28988;SDS011;16089;59.952;10.818;2023-03-02T00:49:52;0.70;;;0.20;;
28988;SDS011;16089;59.952;10.818;2023-03-02T00:52:18;0.30;;;0.20;;
28988;SDS011;16089;59.952;10.818;2023-03-02T00:54:46;1.17;;;0.20;;
28988;SDS011;16089;59.952;10.818;2023-03-02T00:57:12;0.95;;;0.10;;
28988;SDS011;16089;59.952;10.818;2023-03-02T00:59:39;0.98;;;0.20;;
28988;SDS011;16089;59.952;10.818;2023-03-02T01:02:05;1.63;;;0.40;;
28988;SDS011;16089;59.952;10.818;2023-03-02T01:04:32;0.10;;;0.10;;
28988;SDS011;16089;59.952;10.818;2023-03-02T01:06:59;0.50;;;0.20;;
28988;SDS011;16089;59.952;10.818;2023-03-02T01:09:26;1.17;;;0.30;;
28988;SDS011;16089;59.952;10.818;2023-03-02T01:11:54;0.40;;;0.20;;
28988;SDS011;16089;59.952;10.818;2023-03-02T01:14:20;1.00;;;0.20;;
28988;SDS011;16089;59.952;10.818;2023-03-02T01:16:47;0.77;;;0.20;;
28988;SDS011;16089;59.952;10.818;2023-03-02T01:19:13;0.82;;;0.22;;
28988;SDS011;16089;59.952;10.818;2023-03-02T01:21:40;0.95;;;0.30;;
28988;SDS011;16089;59.952;10.818;2023-03-02T01:24:07;0.47;;;0.20;;
28988;SDS011;16089;59.952;10.818;2023-03-02T01:26:34;0.45;;;0.20;;
28988;SDS011;16089;59.952;10.818;2023-03-02T01:29:02;0.52;;;0.20;;
28988;SDS011;16089;59.952;10.818;2023-03-02T01:31:29;7.72;;;2.78;;
28988;SDS011;16089;59.952;10.818;2023-03-02T01:33:55;9.75;;;3.35;;
28988;SDS011;16089;59.952;10.818;2023-03-02T01:36:21;1.40;;;0.40;;
28988;SDS011;16089;59.952;10.818;2023-03-02T01:38:48;0.57;;;0.22;;
28988;SDS011;16089;59.952;10.818;2023-03-02T01:41:14;0.88;;;0.20;;
28988;SDS011;16089;59.952;10.818;2023-03-02T01:43:41;0.32;;;0.10;;
28988;SDS011;16089;59.952;10.818;2023-03-02T01:46:11;1.55;;;0.25;;
28988;SDS011;16089;59.952;10.818;2023-03-02T01:48:39;0.63;;;0.20;;
28988;SDS011;16089;59.952;10.818;2023-03-02T01:51:09;0.70;;;0.28;;
28988;SDS011;16089;59.952;10.818;2023-03-02T01:53:40;0.40;;;0.20;;
28988;SDS011;16089;59.952;10.818;2023-03-02T01:56:10;0.47;;;0.20;;
28988;SDS011;16089;59.952;10.818;2023-03-02T01:58:38;0.68;;;0.20;;
28988;SDS011;16089;59.952;10.818;2023-03-02T02:01:05;0.50;;;0.17;;
28988;SDS011;16089;59.952;10.818;2023-03-02T02:03:40;0.43;;;0.20;;
28988;SDS011;16089;59.952;10.818;2023-03-02T02:06:08;0.45;;;0.20;;
28988;SDS011;16089;59.952;10.818;2023-03-02T02:08:36;0.47;;;0.20;;
28988;SDS011;16089;59.952;10.818;2023-03-02T02:11:03;0.40;;;0.10;;
28988;SDS011;16089;59.952;10.818;2023-03-02T02:13:30;1.55;;;0.20;;
28988;SDS011;16089;59.952;10.818;2023-03-02T02:15:57;0.75;;;0.20;;
28988;SDS011;16089;59.952;10.818;2023-03-02T02:18:23;0.90;;;0.30;;
28988;SDS011;16089;59.952;10.818;2023-03-02T02:20:51;0.52;;;0.20;;
28988;SDS011;16089;59.952;10.818;2023-03-02T02:23:24;0.20;;;0.10;;
28988;SDS011;16089;59.952;10.818;2023-03-02T02:25:56;0.77;;;0.28;;
28988;SDS011;16089;59.952;10.818;2023-03-02T02:28:24;0.40;;;0.20;;
28988;SDS011;16089;59.952;10.818;2023-03-02T02:31:01;1.10;;;0.28;;
28988;SDS011;16089;59.952;10.818;2023-03-02T02:33:29;0.43;;;0.22;;
28988;SDS011;16089;59.952;10.818;2023-03-02T02:36:00;0.47;;;0.17;;
28988;SDS011;16089;59.952;10.818;2023-03-02T02:38:27;0.50;;;0.20;;
28988;SDS011;16089;59.952;10.818;2023-03-02T02:40:54;0.20;;;0.20;;
28988;SDS011;16089;59.952;10.818;2023-03-02T02:43:23;0.70;;;0.20;;
28988;SDS011;16089;59.952;10.818;2023-03-02T02:45:50;1.83;;;0.20;;
28988;SDS011;16089;59.952;10.818;2023-03-02T02:48:18;1.67;;;0.30;;
28988;SDS011;16089;59.952;10.818;2023-03-02T02:50:47;1.05;;;0.25;;
28988;SDS011;16089;59.952;10.818;2023-03-02T02:53:15;1.33;;;0.22;;
28988;SDS011;16089;59.952;10.818;2023-03-02T02:55:42;0.38;;;0.20;;
28988;SDS011;16089;59.952;10.818;2023-03-02T02:58:24;0.43;;;0.20;;
28988;SDS011;16089;59.952;10.818;2023-03-02T03:00:53;0.90;;;0.25;;
28988;SDS011;16089;59.952;10.818;2023-03-02T03:03:23;1.58;;;0.40;;
28988;SDS011;16089;59.952;10.818;2023-03-02T03:05:55;0.20;;;0.15;;
28988;SDS011;16089;59.952;10.818;2023-03-02T03:11:06;0.40;;;0.20;;
28988;SDS011;16089;59.952;10.818;2023-03-02T03:13:33;0.80;;;0.20;;
28988;SDS011;16089;59.952;10.818;2023-03-02T03:16:01;0.35;;;0.20;;
28988;SDS011;16089;59.952;10.818;2023-03-02T03:18:27;0.82;;;0.30;;
28988;SDS011;16089;59.952;10.818;2023-03-02T03:20:55;1.52;;;0.30;;
28988;SDS011;16089;59.952;10.818;2023-03-02T03:23:22;1.42;;;0.30;;
28988;SDS011;16089;59.952;10.818;2023-03-02T03:25:48;0.95;;;0.25;;
28988;SDS011;16089;59.952;10.818;2023-03-02T03:28:14;0.95;;;0.28;;
28988;SDS011;16089;59.952;10.818;2023-03-02T03:30:42;0.30;;;0.20;;
28988;SDS011;16089;59.952;10.818;2023-03-02T03:33:09;0.10;;;0.10;;
28988;SDS011;16089;59.952;10.818;2023-03-02T03:35:36;0.47;;;0.10;;
28988;SDS011;16089;59.952;10.818;2023-03-02T03:38:02;1.02;;;0.20;;
28988;SDS011;16089;59.952;10.818;2023-03-02T03:40:29;1.88;;;0.20;;
28988;SDS011;16089;59.952;10.818;2023-03-02T03:42:58;1.08;;;0.30;;
28988;SDS011;16089;59.952;10.818;2023-03-02T03:45:25;0.45;;;0.20;;
28988;SDS011;16089;59.952;10.818;2023-03-02T03:47:51;0.60;;;0.20;;
28988;SDS011;16089;59.952;10.818;2023-03-02T03:50:19;0.40;;;0.30;;
28988;SDS011;16089;59.952;10.818;2023-03-02T03:52:45;0.43;;;0.20;;
28988;SDS011;16089;59.952;10.818;2023-03-02T03:55:12;0.65;;;0.25;;
28988;SDS011;16089;59.952;10.818;2023-03-02T03:57:38;0.38;;;0.20;;
28988;SDS011;16089;59.952;10.818;2023-03-02T04:00:07;0.47;;;0.20;;
28988;SDS011;16089;59.952;10.818;2023-03-02T04:02:34;0.63;;;0.30;;
28988;SDS011;16089;59.952;10.818;2023-03-02T04:05:00;1.65;;;0.25;;
28988;SDS011;16089;59.952;10.818;2023-03-02T04:07:33;0.73;;;0.30;;
28988;SDS011;16089;59.952;10.818;2023-03-02T04:10:00;0.20;;;0.20;;
28988;SDS011;16089;59.952;10.818;2023-03-02T04:12:28;0.50;;;0.20;;
28988;SDS011;16089;59.952;10.818;2023-03-02T04:14:54;1.08;;;0.40;;
28988;SDS011;16089;59.952;10.818;2023-03-02T04:17:21;0.32;;;0.10;;
28988;SDS011;16089;59.952;10.818;2023-03-02T04:19:47;1.65;;;0.30;;
28988;SDS011;16089;59.952;10.818;2023-03-02T04:22:14;2.88;;;0.30;;
28988;SDS011;16089;59.952;10.818;2023-03-02T04:24:42;0.55;;;0.30;;
28988;SDS011;16089;59.952;10.818;2023-03-02T04:27:08;0.50;;;0.20;;
28988;SDS011;16089;59.952;10.818;2023-03-02T04:29:35;0.13;;;0.13;;
28988;SDS011;16089;59.952;10.818;2023-03-02T04:32:01;0.28;;;0.20;;
28988;SDS011;16089;59.952;10.818;2023-03-02T04:34:28;1.10;;;0.30;;
28988;SDS011;16089;59.952;10.818;2023-03-02T04:36:54;0.45;;;0.30;;
28988;SDS011;16089;59.952;10.818;2023-03-02T04:39:21;0.65;;;0.20;;
28988;SDS011;16089;59.952;10.818;2023-03-02T04:41:49;0.30;;;0.20;;
28988;SDS011;16089;59.952;10.818;2023-03-02T04:44:15;3.38;;;0.40;;
28988;SDS011;16089;59.952;10.818;2023-03-02T04:46:42;1.20;;;0.20;;
28988;SDS011;16089;59.952;10.818;2023-03-02T04:49:08;0.35;;;0.20;;
28988;SDS011;16089;59.952;10.818;2023-03-02T04:51:35;0.88;;;0.30;;
28988;SDS011;16089;59.952;10.818;2023-03-02T04:54:03;2.15;;;0.30;;
28988;SDS011;16089;59.952;10.818;2023-03-02T04:56:30;0.88;;;0.20;;
28988;SDS011;16089;59.952;10.818;2023-03-02T04:58:57;0.30;;;0.10;;
28988;SDS011;16089;59.952;10.818;2023-03-02T05:01:24;0.65;;;0.30;;
28988;SDS011;16089;59.952;10.818;2023-03-02T05:03:51;0.82;;;0.30;;
28988;SDS011;16089;59.952;10.818;2023-03-02T05:06:18;0.35;;;0.10;;
28988;SDS011;16089;59.952;10.818;2023-03-02T05:08:46;0.25;;;0.20;;
28988;SDS011;16089;59.952;10.818;2023-03-02T05:11:13;0.52;;;0.20;;
28988;SDS011;16089;59.952;10.818;2023-03-02T05:13:46;1.75;;;0.35;;
28988;SDS011;16089;59.952;10.818;2023-03-02T05:16:13;2.05;;;0.63;;
28988;SDS011;16089;59.952;10.818;2023-03-02T05:18:40;3.63;;;1.10;;
28988;SDS011;16089;59.952;10.818;2023-03-02T05:21:06;5.80;;;1.25;;
28988;SDS011;16089;59.952;10.818;2023-03-02T05:23:32;4.43;;;1.80;;
28988;SDS011;16089;59.952;10.818;2023-03-02T05:25:59;7.90;;;2.28;;
28988;SDS011;16089;59.952;10.818;2023-03-02T05:28:25;7.55;;;2.47;;
28988;SDS011;16089;59.952;10.818;2023-03-02T05:30:52;6.68;;;2.55;;
28988;SDS011;16089;59.952;10.818;2023-03-02T05:33:20;7.32;;;2.85;;
28988;SDS011;16089;59.952;10.818;2023-03-02T05:35:46;5.65;;;2.95;;
28988;SDS011;16089;59.952;10.818;2023-03-02T05:38:13;6.10;;;2.97;;
28988;SDS011;16089;59.952;10.818;2023-03-02T05:40:40;8.18;;;2.70;;
28988;SDS011;16089;59.952;10.818;2023-03-02T05:43:07;8.90;;;2.85;;
28988;SDS011;16089;59.952;10.818;2023-03-02T05:45:34;8.15;;;3.03;;
28988;SDS011;16089;59.952;10.818;2023-03-02T05:48:01;6.30;;;2.53;;
28988;SDS011;16089;59.952;10.818;2023-03-02T05:50:29;5.38;;;2.10;;
28988;SDS011;16089;59.952;10.818;2023-03-02T05:52:57;4.38;;;1.30;;
28988;SDS011;16089;59.952;10.818;2023-03-02T05:55:24;7.57;;;1.88;;
28988;SDS011;16089;59.952;10.818;2023-03-02T05:57:50;3.33;;;1.40;;
28988;SDS011;16089;59.952;10.818;2023-03-02T06:00:17;3.20;;;1.40;;
28988;SDS011;16089;59.952;10.818;2023-03-02T06:02:44;4.45;;;1.60;;
28988;SDS011;16089;59.952;10.818;2023-03-02T06:05:11;6.22;;;1.85;;
28988;SDS011;16089;59.952;10.818;2023-03-02T06:07:38;4.72;;;2.03;;
28988;SDS011;16089;59.952;10.818;2023-03-02T06:10:05;4.82;;;2.20;;
28988;SDS011;16089;59.952;10.818;2023-03-02T06:12:32;16.67;;;3.50;;
28988;SDS011;16089;59.952;10.818;2023-03-02T06:14:59;13.23;;;4.00;;
28988;SDS011;16089;59.952;10.818;2023-03-02T06:17:25;7.93;;;3.13;;
28988;SDS011;16089;59.952;10.818;2023-03-02T06:19:51;25.15;;;5.53;;
28988;SDS011;16089;59.952;10.818;2023-03-02T06:22:18;12.32;;;3.30;;
28988;SDS011;16089;59.952;10.818;2023-03-02T06:24:45;16.00;;;4.90;;
28988;SDS011;16089;59.952;10.818;2023-03-02T06:27:12;8.68;;;3.60;;
28988;SDS011;16089;59.952;10.818;2023-03-02T06:29:38;6.28;;;1.90;;
28988;SDS011;16089;59.952;10.818;2023-03-02T06:32:04;6.40;;;1.50;;
28988;SDS011;16089;59.952;10.818;2023-03-02T06:34:31;7.85;;;1.75;;
28988;SDS011;16089;59.952;10.818;2023-03-02T06:36:57;6.22;;;1.52;;
28988;SDS011;16089;59.952;10.818;2023-03-02T06:39:24;6.43;;;1.30;;
28988;SDS011;16089;59.952;10.818;2023-03-02T06:41:51;4.80;;;1.05;;
28988;SDS011;16089;59.952;10.818;2023-03-02T06:44:18;6.25;;;1.40;;
28988;SDS011;16089;59.952;10.818;2023-03-02T06:46:44;5.47;;;1.25;;
28988;SDS011;16089;59.952;10.818;2023-03-02T06:49:11;6.90;;;1.23;;
28988;SDS011;16089;59.952;10.818;2023-03-02T06:51:37;2.05;;;0.68;;
28988;SDS011;16089;59.952;10.818;2023-03-02T06:54:04;2.08;;;0.85;;
28988;SDS011;16089;59.952;10.818;2023-03-02T06:56:31;1.70;;;0.75;;
28988;SDS011;16089;59.952;10.818;2023-03-02T06:58:58;2.50;;;1.17;;
28988;SDS011;16089;59.952;10.818;2023-03-02T07:01:25;4.07;;;0.90;;
28988;SDS011;16089;59.952;10.818;2023-03-02T07:03:51;3.20;;;0.90;;
28988;SDS011;16089;59.952;10.818;2023-03-02T07:06:17;43.17;;;3.20;;
28988;SDS011;16089;59.952;10.818;2023-03-02T07:08:44;8.77;;;1.52;;
28988;SDS011;16089;59.952;10.818;2023-03-02T07:11:10;4.93;;;1.13;;
28988;SDS011;16089;59.952;10.818;2023-03-02T07:13:37;6.03;;;0.80;;
28988;SDS011;16089;59.952;10.818;2023-03-02T07:16:06;3.72;;;0.60;;
28988;SDS011;16089;59.952;10.818;2023-03-02T07:18:32;3.28;;;0.65;;
28988;SDS011;16089;59.952;10.818;2023-03-02T07:20:59;2.05;;;0.70;;
28988;SDS011;16089;59.952;10.818;2023-03-02T07:23:25;3.28;;;0.65;;
28988;SDS011;16089;59.952;10.818;2023-03-02T07:25:51;3.97;;;0.65;;
28988;SDS011;16089;59.952;10.818;2023-03-02T07:28:18;5.22;;;0.80;;
28988;SDS011;16089;59.952;10.818;2023-03-02T07:30:45;2.38;;;0.50;;
28988;SDS011;16089;59.952;10.818;2023-03-02T07:33:13;4.22;;;0.55;;
28988;SDS011;16089;59.952;10.818;2023-03-02T07:35:39;6.53;;;0.63;;
28988;SDS011;16089;59.952;10.818;2023-03-02T07:38:06;1.55;;;0.57;;
28988;SDS011;16089;59.952;10.818;2023-03-02T07:40:32;3.35;;;0.70;;
28988;SDS011;16089;59.952;10.818;2023-03-02T07:42:59;5.78;;;1.00;;
28988;SDS011;16089;59.952;10.818;2023-03-02T07:45:25;4.68;;;0.85;;
28988;SDS011;16089;59.952;10.818;2023-03-02T07:47:51;2.97;;;0.60;;
28988;SDS011;16089;59.952;10.818;2023-03-02T07:50:19;2.28;;;0.82;;
28988;SDS011;16089;59.952;10.818;2023-03-02T07:52:45;4.15;;;1.00;;
28988;SDS011;16089;59.952;10.818;2023-03-02T07:55:12;2.80;;;1.05;;
28988;SDS011;16089;59.952;10.818;2023-03-02T07:57:38;3.58;;;1.23;;
28988;SDS011;16089;59.952;10.818;2023-03-02T08:00:05;4.63;;;1.10;;
28988;SDS011;16089;59.952;10.818;2023-03-02T08:02:31;2.53;;;0.88;;
28988;SDS011;16089;59.952;10.818;2023-03-02T08:04:58;6.60;;;1.48;;
28988;SDS011;16089;59.952;10.818;2023-03-02T08:07:26;4.60;;;1.40;;
28988;SDS011;16089;59.952;10.818;2023-03-02T08:09:52;3.08;;;1.27;;
28988;SDS011;16089;59.952;10.818;2023-03-02T08:12:18;4.15;;;1.23;;
28988;SDS011;16089;59.952;10.818;2023-03-02T08:14:45;5.47;;;2.05;;
28988;SDS011;16089;59.952;10.818;2023-03-02T08:17:12;6.43;;;1.90;;
28988;SDS011;16089;59.952;10.818;2023-03-02T08:19:38;6.30;;;2.22;;
28988;SDS011;16089;59.952;10.818;2023-03-02T08:22:05;4.47;;;1.80;;
28988;SDS011;16089;59.952;10.818;2023-03-02T08:24:32;8.23;;;2.58;;
28988;SDS011;16089;59.952;10.818;2023-03-02T08:26:59;9.98;;;4.10;;
28988;SDS011;16089;59.952;10.818;2023-03-02T08:29:26;6.72;;;3.60;;
28988;SDS011;16089;59.952;10.818;2023-03-02T08:31:52;10.15;;;3.45;;
28988;SDS011;16089;59.952;10.818;2023-03-02T08:34:18;8.18;;;3.97;;
28988;SDS011;16089;59.952;10.818;2023-03-02T08:36:45;8.90;;;3.20;;
28988;SDS011;16089;59.952;10.818;2023-03-02T08:39:11;9.75;;;2.78;;
28988;SDS011;16089;59.952;10.818;2023-03-02T08:41:39;14.13;;;3.38;;
28988;SDS011;16089;59.952;10.818;2023-03-02T08:44:05;7.75;;;2.63;;
28988;SDS011;16089;59.952;10.818;2023-03-02T08:46:33;7.00;;;2.65;;
28988;SDS011;16089;59.952;10.818;2023-03-02T08:48:59;7.43;;;2.85;;
28988;SDS011;16089;59.952;10.818;2023-03-02T08:51:26;11.93;;;3.53;;
28988;SDS011;16089;59.952;10.818;2023-03-02T08:53:53;13.57;;;3.88;;
28988;SDS011;16089;59.952;10.818;2023-03-02T08:56:21;13.95;;;4.60;;
28988;SDS011;16089;59.952;10.818;2023-03-02T08:58:49;13.30;;;3.80;;
28988;SDS011;16089;59.952;10.818;2023-03-02T09:01:17;14.65;;;4.50;;
28988;SDS011;16089;59.952;10.818;2023-03-02T09:03:44;14.32;;;4.57;;
28988;SDS011;16089;59.952;10.818;2023-03-02T09:06:10;14.38;;;4.85;;
28988;SDS011;16089;59.952;10.818;2023-03-02T09:08:37;8.23;;;3.05;;
28988;SDS011;16089;59.952;10.818;2023-03-02T09:11:03;7.97;;;2.95;;
28988;SDS011;16089;59.952;10.818;2023-03-02T09:13:30;10.02;;;2.85;;
28988;SDS011;16089;59.952;10.818;2023-03-02T09:15:58;9.40;;;3.40;;
28988;SDS011;16089;59.952;10.818;2023-03-02T09:18:25;8.43;;;2.20;;
28988;SDS011;16089;59.952;10.818;2023-03-02T09:20:53;6.90;;;2.20;;
28988;SDS011;16089;59.952;10.818;2023-03-02T09:23:20;7.35;;;2.40;;
28988;SDS011;16089;59.952;10.818;2023-03-02T09:25:46;8.88;;;2.35;;
28988;SDS011;16089;59.952;10.818;2023-03-02T09:28:13;7.97;;;3.15;;
28988;SDS011;16089;59.952;10.818;2023-03-02T09:30:40;5.80;;;2.58;;
28988;SDS011;16089;59.952;10.818;2023-03-02T09:33:08;8.10;;;2.78;;
28988;SDS011;16089;59.952;10.818;2023-03-02T09:35:34;9.90;;;3.10;;
28988;SDS011;16089;59.952;10.818;2023-03-02T09:38:03;8.95;;;2.70;;
28988;SDS011;16089;59.952;10.818;2023-03-02T09:40:29;6.80;;;2.83;;
28988;SDS011;16089;59.952;10.818;2023-03-02T09:43:00;14.18;;;3.15;;
28988;SDS011;16089;59.952;10.818;2023-03-02T09:45:35;10.48;;;2.80;;
28988;SDS011;16089;59.952;10.818;2023-03-02T09:48:10;9.20;;;3.22;;
28988;SDS011;16089;59.952;10.818;2023-03-02T09:50:38;8.52;;;3.90;;
28988;SDS011;16089;59.952;10.818;2023-03-02T09:55:54;10.93;;;2.72;;
28988;SDS011;16089;59.952;10.818;2023-03-02T09:58:23;9.40;;;3.30;;
28988;SDS011;16089;59.952;10.818;2023-03-02T10:00:50;11.82;;;2.75;;
28988;SDS011;16089;59.952;10.818;2023-03-02T10:03:19;9.90;;;2.83;;
28988;SDS011;16089;59.952;10.818;2023-03-02T10:05:46;7.72;;;3.05;;
28988;SDS011;16089;59.952;10.818;2023-03-02T10:08:13;7.10;;;2.85;;
28988;SDS011;16089;59.952;10.818;2023-03-02T10:10:42;10.35;;;3.17;;
28988;SDS011;16089;59.952;10.818;2023-03-02T10:13:18;14.73;;;4.22;;
28988;SDS011;16089;59.952;10.818;2023-03-02T10:15:47;12.68;;;4.55;;
28988;SDS011;16089;59.952;10.818;2023-03-02T10:18:19;6.80;;;3.00;;
28988;SDS011;16089;59.952;10.818;2023-03-02T10:20:48;8.30;;;2.75;;
28988;SDS011;16089;59.952;10.818;2023-03-02T10:23:21;9.80;;;3.30;;
28988;SDS011;16089;59.952;10.818;2023-03-02T10:25:49;14.95;;;3.53;;
28988;SDS011;16089;59.952;10.818;2023-03-02T10:28:18;15.30;;;3.20;;
28988;SDS011;16089;59.952;10.818;2023-03-02T10:30:45;10.10;;;3.65;;
28988;SDS011;16089;59.952;10.818;2023-03-02T10:33:15;8.80;;;2.78;;
28988;SDS011;16089;59.952;10.818;2023-03-02T10:35:44;11.20;;;2.97;;
28988;SDS011;16089;59.952;10.818;2023-03-02T10:38:13;13.10;;;3.25;;
28988;SDS011;16089;59.952;10.818;2023-03-02T10:40:40;8.50;;;2.83;;
28988;SDS011;16089;59.952;10.818;2023-03-02T10:43:10;11.52;;;3.50;;
28988;SDS011;16089;59.952;10.818;2023-03-02T10:45:39;6.40;;;2.83;;
28988;SDS011;16089;59.952;10.818;2023-03-02T10:48:06;8.27;;;3.35;;
28988;SDS011;16089;59.952;10.818;2023-03-02T10:50:33;9.23;;;3.00;;
28988;SDS011;16089;59.952;10.818;2023-03-02T10:53:00;9.77;;;2.75;;
28988;SDS011;16089;59.952;10.818;2023-03-02T10:55:27;3.65;;;1.75;;
28988;SDS011;16089;59.952;10.818;2023-03-02T10:57:58;5.57;;;1.90;;
28988;SDS011;16089;59.952;10.818;2023-03-02T11:00:26;5.28;;;1.50;;
28988;SDS011;16089;59.952;10.818;2023-03-02T11:02:54;4.78;;;1.25;;
28988;SDS011;16089;59.952;10.818;2023-03-02T11:05:22;4.32;;;1.30;;
28988;SDS011;16089;59.952;10.818;2023-03-02T11:07:51;8.13;;;1.50;;
28988;SDS011;16089;59.952;10.818;2023-03-02T11:10:20;7.28;;;1.30;;
28988;SDS011;16089;59.952;10.818;2023-03-02T11:12:48;4.32;;;1.58;;
28988;SDS011;16089;59.952;10.818;2023-03-02T11:15:25;8.50;;;1.88;;
28988;SDS011;16089;59.952;10.818;2023-03-02T11:18:01;5.22;;;1.90;;
28988;SDS011;16089;59.952;10.818;2023-03-02T11:20:30;6.43;;;1.75;;
28988;SDS011;16089;59.952;10.818;2023-03-02T11:22:59;7.65;;;2.15;;
28988;SDS011;16089;59.952;10.818;2023-03-02T11:28:42;4.68;;;1.70;;
28988;SDS011;16089;59.952;10.818;2023-03-02T11:31:11;5.75;;;1.63;;
28988;SDS011;16089;59.952;10.818;2023-03-02T11:33:41;7.03;;;1.67;;
28988;SDS011;16089;59.952;10.818;2023-03-02T11:36:10;6.70;;;1.83;;
28988;SDS011;16089;59.952;10.818;2023-03-02T11:38:40;8.13;;;1.95;;
28988;SDS011;16089;59.952;10.818;2023-03-02T11:41:11;10.32;;;1.80;;
28988;SDS011;16089;59.952;10.818;2023-03-02T11:43:39;7.43;;;1.90;;
28988;SDS011;16089;59.952;10.818;2023-03-02T11:46:06;4.80;;;1.70;;
28988;SDS011;16089;59.952;10.818;2023-03-02T11:48:38;10.23;;;1.90;;
28988;SDS011;16089;59.952;10.818;2023-03-02T11:51:09;6.55;;;1.80;;
28988;SDS011;16089;59.952;10.818;2023-03-02T11:53:39;6.47;;;1.80;;
28988;SDS011;16089;59.952;10.818;2023-03-02T11:56:06;7.47;;;1.83;;
28988;SDS011;16089;59.952;10.818;2023-03-02T11:58:33;11.20;;;1.83;;
28988;SDS011;16089;59.952;10.818;2023-03-02T12:00:59;6.00;;;2.13;;
28988;SDS011;16089;59.952;10.818;2023-03-02T12:03:38;6.95;;;3.22;;
28988;SDS011;16089;59.952;10.818;2023-03-02T12:06:06;4.90;;;1.98;;
28988;SDS011;16089;59.952;10.818;2023-03-02T12:08:35;3.95;;;1.17;;
28988;SDS011;16089;59.952;10.818;2023-03-02T12:11:05;5.75;;;1.40;;
28988;SDS011;16089;59.952;10.818;2023-03-02T12:13:34;3.67;;;1.15;;
28988;SDS011;16089;59.952;10.818;2023-03-02T12:16:16;3.95;;;1.40;;
28988;SDS011;16089;59.952;10.818;2023-03-02T12:18:46;3.72;;;1.35;;
28988;SDS011;16089;59.952;10.818;2023-03-02T12:21:14;5.32;;;1.30;;
28988;SDS011;16089;59.952;10.818;2023-03-02T12:23:52;4.72;;;0.98;;
28988;SDS011;16089;59.952;10.818;2023-03-02T12:26:23;5.45;;;1.38;;
28988;SDS011;16089;59.952;10.818;2023-03-02T12:28:56;3.60;;;1.02;;
28988;SDS011;16089;59.952;10.818;2023-03-02T12:31:22;6.35;;;1.20;;
28988;SDS011;16089;59.952;10.818;2023-03-02T12:33:51;4.32;;;1.00;;
28988;SDS011;16089;59.952;10.818;2023-03-02T12:36:19;2.67;;;0.90;;
28988;SDS011;16089;59.952;10.818;2023-03-02T12:38:50;2.53;;;0.85;;
28988;SDS011;16089;59.952;10.818;2023-03-02T12:41:20;5.30;;;1.40;;
28988;SDS011;16089;59.952;10.818;2023-03-02T12:43:50;6.90;;;1.15;;
28988;SDS011;16089;59.952;10.818;2023-03-02T12:46:28;4.13;;;1.05;;
28988;SDS011;16089;59.952;10.818;2023-03-02T12:48:58;6.03;;;1.20;;
28988;SDS011;16089;59.952;10.818;2023-03-02T12:51:26;6.25;;;1.10;;
28988;SDS011;16089;59.952;10.818;2023-03-02T12:54:00;7.53;;;1.30;;
28988;SDS011;16089;59.952;10.818;2023-03-02T12:56:27;4.10;;;1.00;;
28988;SDS011;16089;59.952;10.818;2023-03-02T12:58:53;6.25;;;1.10;;
28988;SDS011;16089;59.952;10.818;2023-03-02T13:01:21;3.03;;;1.00;;
28988;SDS011;16089;59.952;10.818;2023-03-02T13:03:47;3.50;;;0.90;;
28988;SDS011;16089;59.952;10.818;2023-03-02T13:06:15;7.93;;;1.00;;
28988;SDS011;16089;59.952;10.818;2023-03-02T13:08:42;2.65;;;1.10;;
28988;SDS011;16089;59.952;10.818;2023-03-02T13:11:09;3.95;;;1.10;;
28988;SDS011;16089;59.952;10.818;2023-03-02T13:13:37;5.05;;;1.35;;
28988;SDS011;16089;59.952;10.818;2023-03-02T13:16:04;3.90;;;1.20;;
28988;SDS011;16089;59.952;10.818;2023-03-02T13:18:32;6.93;;;1.20;;
28988;SDS011;16089;59.952;10.818;2023-03-02T13:21:00;2.83;;;1.00;;
28988;SDS011;16089;59.952;10.818;2023-03-02T13:23:28;9.30;;;1.55;;
28988;SDS011;16089;59.952;10.818;2023-03-02T13:25:56;7.63;;;1.00;;
28988;SDS011;16089;59.952;10.818;2023-03-02T13:28:23;3.40;;;1.00;;
28988;SDS011;16089;59.952;10.818;2023-03-02T13:30:54;4.38;;;0.85;;
28988;SDS011;16089;59.952;10.818;2023-03-02T13:33:22;5.20;;;1.00;;
28988;SDS011;16089;59.952;10.818;2023-03-02T13:35:48;3.40;;;0.75;;
28988;SDS011;16089;59.952;10.818;2023-03-02T13:38:15;5.40;;;0.98;;
28988;SDS011;16089;59.952;10.818;2023-03-02T13:40:44;2.78;;;0.82;;
28988;SDS011;16089;59.952;10.818;2023-03-02T13:43:19;4.45;;;0.90;;
28988;SDS011;16089;59.952;10.818;2023-03-02T13:45:49;1.98;;;0.80;;
28988;SDS011;16089;59.952;10.818;2023-03-02T13:48:16;1.80;;;0.73;;
28988;SDS011;16089;59.952;10.818;2023-03-02T13:50:49;1.63;;;0.70;;
28988;SDS011;16089;59.952;10.818;2023-03-02T13:53:16;5.90;;;1.08;;
28988;SDS011;16089;59.952;10.818;2023-03-02T13:55:44;3.40;;;1.10;;
28988;SDS011;16089;59.952;10.818;2023-03-02T13:58:11;5.20;;;1.23;;
28988;SDS011;16089;59.952;10.818;2023-03-02T14:00:39;6.45;;;1.10;;
28988;SDS011;16089;59.952;10.818;2023-03-02T14:03:11;11.60;;;1.55;;
28988;SDS011;16089;59.952;10.818;2023-03-02T14:05:45;3.97;;;1.13;;
28988;SDS011;16089;59.952;10.818;2023-03-02T14:08:11;3.90;;;1.20;;
28988;SDS011;16089;59.952;10.818;2023-03-02T14:10:37;5.85;;;1.27;;
28988;SDS011;16089;59.952;10.818;2023-03-02T14:13:07;6.07;;;1.80;;
28988;SDS011;16089;59.952;10.818;2023-03-02T14:15:35;23.38;;;8.93;;
28988;SDS011;16089;59.952;10.818;2023-03-02T14:18:02;11.65;;;3.15;;
28988;SDS011;16089;59.952;10.818;2023-03-02T14:20:29;6.65;;;1.65;;
28988;SDS011;16089;59.952;10.818;2023-03-02T14:22:55;4.53;;;1.45;;
28988;SDS011;16089;59.952;10.818;2023-03-02T14:25:21;5.18;;;1.48;;
28988;SDS011;16089;59.952;10.818;2023-03-02T14:27:48;7.13;;;1.30;;
28988;SDS011;16089;59.952;10.818;2023-03-02T14:30:17;4.72;;;1.23;;
28988;SDS011;16089;59.952;10.818;2023-03-02T14:32:53;4.55;;;1.23;;
28988;SDS011;16089;59.952;10.818;2023-03-02T14:35:22;6.07;;;1.33;;
28988;SDS011;16089;59.952;10.818;2023-03-02T14:37:49;8.25;;;1.30;;
28988;SDS011;16089;59.952;10.818;2023-03-02T14:40:17;4.50;;;1.27;;
28988;SDS011;16089;59.952;10.818;2023-03-02T14:42:43;4.68;;;1.00;;
28988;SDS011;16089;59.952;10.818;2023-03-02T14:45:10;3.95;;;1.10;;